Time,TemperatureF,DewpointF,PressureIn,WindDirection,WindDirectionDegrees,WindSpeedMPH,WindSpeedGustMPH,Humidity,HourlyPrecipIn,Conditions,Clouds,dailyrainin,SoftwareType,DateUTC
2013-06-19 00:01:00,57.8,57.2,29.68,East,86,0.0,0.0,98,0.05,,,0.89,Wunderground v.1.15,2013-06-19 04:01:00,
2013-06-19 00:02:00,57.8,57.2,29.68,East,86,0.0,0.0,98,0.05,,,0.89,Wunderground v.1.15,2013-06-19 04:02:00,
2013-06-19 00:03:00,57.8,57.2,29.68,East,86,0.0,0.0,98,0.05,,,0.89,Wunderground v.1.15,2013-06-19 04:03:00,
2013-06-19 00:04:00,57.8,57.2,29.68,East,86,0.0,0.0,98,0.05,,,0.00,Wunderground v.1.15,2013-06-19 04:04:00,
2013-06-19 00:09:00,57.7,57.1,29.68,East,86,0.0,0.0,98,0.04,,,0.01,Wunderground v.1.15,2013-06-19 04:09:00,
2013-06-19 00:10:00,57.7,57.1,29.68,East,86,0.0,0.0,98,0.04,,,0.01,Wunderground v.1.15,2013-06-19 04:10:00,
2013-06-19 00:16:00,57.6,57.0,29.68,East,86,0.0,0.0,98,0.04,,,0.01,Wunderground v.1.15,2013-06-19 04:16:00,
2013-06-19 00:22:00,57.6,57.0,29.68,East,86,0.0,0.0,98,0.05,,,0.02,Wunderground v.1.15,2013-06-19 04:22:00,
2013-06-19 00:28:00,57.6,57.0,29.68,East,86,0.0,0.0,98,0.05,,,0.02,Wunderground v.1.15,2013-06-19 04:28:00,
2013-06-19 00:34:00,57.6,57.0,29.68,East,86,0.0,0.0,98,0.05,,,0.02,Wunderground v.1.15,2013-06-19 04:34:00,
2013-06-19 00:39:00,57.5,56.9,29.67,East,86,0.0,0.0,98,0.00,,,0.03,Wunderground v.1.15,2013-06-19 04:39:00,
2013-06-19 00:45:00,57.6,57.0,29.67,East,86,0.0,0.0,98,0.00,,,0.03,Wunderground v.1.15,2013-06-19 04:45:00,
2013-06-19 00:51:00,57.6,57.0,29.67,East,86,0.0,0.0,98,0.00,,,0.03,Wunderground v.1.15,2013-06-19 04:51:00,
2013-06-19 00:57:00,57.5,56.9,29.67,East,86,0.0,0.0,98,0.04,,,0.04,Wunderground v.1.15,2013-06-19 04:57:00,
2013-06-19 01:03:00,57.5,56.9,29.67,East,86,0.0,0.0,98,0.04,,,0.04,Wunderground v.1.15,2013-06-19 05:03:00,
2013-06-19 01:09:00,57.4,56.8,29.67,East,86,0.0,0.0,98,0.04,,,0.05,Wunderground v.1.15,2013-06-19 05:09:00,
2013-06-19 01:15:00,57.2,56.6,29.67,East,86,0.0,0.0,98,0.04,,,0.05,Wunderground v.1.15,2013-06-19 05:15:00,
2013-06-19 01:21:00,57.0,56.4,29.67,East,86,0.0,0.0,98,0.05,,,0.06,Wunderground v.1.15,2013-06-19 05:21:00,
2013-06-19 01:26:00,56.9,56.3,29.68,East,86,0.0,0.0,98,0.05,,,0.06,Wunderground v.1.15,2013-06-19 05:26:00,
2013-06-19 01:32:00,56.9,56.3,29.67,East,86,0.0,0.0,98,0.04,,,0.07,Wunderground v.1.15,2013-06-19 05:32:00,
2013-06-19 01:38:00,56.8,56.2,29.67,East,86,0.0,0.0,98,0.04,,,0.07,Wunderground v.1.15,2013-06-19 05:38:00,
2013-06-19 01:44:00,56.7,56.1,29.67,East,86,0.0,0.0,98,0.05,,,0.08,Wunderground v.1.15,2013-06-19 05:44:00,
2013-06-19 01:50:00,56.5,55.9,29.67,East,86,0.0,0.0,98,0.05,,,0.08,Wunderground v.1.15,2013-06-19 05:50:00,
2013-06-19 01:55:00,56.2,55.6,29.67,East,86,0.0,0.0,98,0.05,,,0.08,Wunderground v.1.15,2013-06-19 05:55:00,
2013-06-19 02:01:00,55.9,55.3,29.67,East,86,0.0,0.0,98,0.04,,,0.09,Wunderground v.1.15,2013-06-19 06:01:00,
2013-06-19 02:07:00,55.8,55.2,29.67,East,86,0.0,0.0,98,0.04,,,0.09,Wunderground v.1.15,2013-06-19 06:07:00,
2013-06-19 02:13:00,55.6,55.0,29.67,East,86,0.0,0.0,98,0.05,,,0.10,Wunderground v.1.15,2013-06-19 06:13:00,
2013-06-19 02:19:00,55.6,55.0,29.67,East,86,0.0,0.0,98,0.05,,,0.10,Wunderground v.1.15,2013-06-19 06:19:00,
2013-06-19 02:24:00,55.6,55.0,29.67,East,86,0.0,0.0,98,0.04,,,0.10,Wunderground v.1.15,2013-06-19 06:24:00,
2013-06-19 02:30:00,55.5,54.9,29.67,East,86,0.0,0.0,98,0.04,,,0.11,Wunderground v.1.15,2013-06-19 06:30:00,
2013-06-19 02:36:00,55.4,54.8,29.67,East,86,0.0,0.0,98,0.04,,,0.11,Wunderground v.1.15,2013-06-19 06:36:00,
2013-06-19 02:42:00,55.4,54.8,29.67,East,86,0.0,0.0,98,0.05,,,0.12,Wunderground v.1.15,2013-06-19 06:42:00,
2013-06-19 02:48:00,55.4,54.8,29.67,East,86,0.0,0.0,98,0.05,,,0.12,Wunderground v.1.15,2013-06-19 06:48:00,
2013-06-19 02:54:00,55.4,54.8,29.66,East,86,0.0,0.0,98,0.04,,,0.12,Wunderground v.1.15,2013-06-19 06:54:00,
2013-06-19 02:59:00,55.4,54.8,29.66,East,86,0.0,0.0,98,0.04,,,0.13,Wunderground v.1.15,2013-06-19 06:59:00,
2013-06-19 03:05:00,55.3,54.7,29.66,East,86,0.0,0.0,98,0.04,,,0.13,Wunderground v.1.15,2013-06-19 07:05:00,
2013-06-19 03:11:00,55.3,54.7,29.66,East,86,0.0,0.0,98,0.04,,,0.14,Wunderground v.1.15,2013-06-19 07:11:00,
2013-06-19 03:17:00,55.1,54.5,29.66,East,86,0.0,0.0,98,0.04,,,0.14,Wunderground v.1.15,2013-06-19 07:17:00,
2013-06-19 03:23:00,55.1,54.5,29.66,East,86,0.0,0.0,98,0.04,,,0.14,Wunderground v.1.15,2013-06-19 07:23:00,
2013-06-19 03:28:00,55.0,54.4,29.66,East,86,0.0,0.0,98,0.00,,,0.15,Wunderground v.1.15,2013-06-19 07:28:00,
2013-06-19 03:34:00,55.0,54.4,29.66,East,86,0.0,0.0,98,0.00,,,0.15,Wunderground v.1.15,2013-06-19 07:34:00,
2013-06-19 03:40:00,55.0,54.4,29.66,East,86,0.0,0.0,98,0.00,,,0.15,Wunderground v.1.15,2013-06-19 07:40:00,
2013-06-19 03:46:00,55.0,54.4,29.66,East,86,0.0,0.0,98,0.04,,,0.16,Wunderground v.1.15,2013-06-19 07:46:00,
2013-06-19 03:52:00,55.0,54.4,29.67,East,86,0.0,0.0,98,0.04,,,0.16,Wunderground v.1.15,2013-06-19 07:52:00,
2013-06-19 03:58:00,55.1,54.5,29.66,East,86,0.0,0.0,98,0.04,,,0.16,Wunderground v.1.15,2013-06-19 07:58:00,
2013-06-19 04:04:00,55.2,54.6,29.66,East,86,0.0,0.0,98,0.00,,,0.17,Wunderground v.1.15,2013-06-19 08:04:00,
2013-06-19 04:09:00,55.3,54.7,29.67,East,86,0.0,0.0,98,0.00,,,0.17,Wunderground v.1.15,2013-06-19 08:09:00,
2013-06-19 04:15:00,55.3,54.7,29.67,East,86,0.0,0.0,98,0.00,,,0.17,Wunderground v.1.15,2013-06-19 08:15:00,
2013-06-19 04:21:00,55.3,54.7,29.67,East,86,0.0,0.0,98,0.04,,,0.18,Wunderground v.1.15,2013-06-19 08:21:00,
2013-06-19 04:27:00,55.3,54.7,29.67,East,86,0.0,0.0,98,0.04,,,0.18,Wunderground v.1.15,2013-06-19 08:27:00,
2013-06-19 04:33:00,55.4,54.8,29.67,East,86,0.0,0.0,98,0.04,,,0.18,Wunderground v.1.15,2013-06-19 08:33:00,
2013-06-19 04:39:00,55.4,54.8,29.67,East,86,0.0,0.0,98,0.00,,,0.19,Wunderground v.1.15,2013-06-19 08:39:00,
2013-06-19 04:45:00,55.4,54.8,29.67,East,86,0.0,0.0,98,0.00,,,0.19,Wunderground v.1.15,2013-06-19 08:45:00,
2013-06-19 04:50:00,55.4,54.8,29.67,East,86,0.0,0.0,98,0.00,,,0.19,Wunderground v.1.15,2013-06-19 08:50:00,
2013-06-19 04:56:00,55.5,54.9,29.67,East,86,0.0,0.0,98,0.00,,,0.20,Wunderground v.1.15,2013-06-19 08:56:00,
2013-06-19 05:02:00,55.6,55.0,29.67,East,86,0.0,0.0,98,0.00,,,0.20,Wunderground v.1.15,2013-06-19 09:02:00,
2013-06-19 05:08:00,55.7,55.1,29.67,East,86,0.0,0.0,98,0.00,,,0.20,Wunderground v.1.15,2013-06-19 09:08:00,
2013-06-19 05:14:00,55.8,55.2,29.67,East,86,0.0,0.0,98,0.00,,,0.20,Wunderground v.1.15,2013-06-19 09:14:00,
2013-06-19 05:20:00,55.8,55.2,29.67,East,86,0.0,0.0,98,0.00,,,0.21,Wunderground v.1.15,2013-06-19 09:20:00,
2013-06-19 05:25:00,55.9,55.3,29.67,East,86,0.0,0.0,98,0.00,,,0.21,Wunderground v.1.15,2013-06-19 09:25:00,
2013-06-19 05:31:00,56.0,55.4,29.67,East,86,0.0,0.0,98,0.00,,,0.21,Wunderground v.1.15,2013-06-19 09:31:00,
2013-06-19 05:37:00,56.0,55.4,29.67,East,86,0.0,0.0,98,0.00,,,0.22,Wunderground v.1.15,2013-06-19 09:37:00,
2013-06-19 05:43:00,56.1,55.5,29.67,East,86,0.0,0.0,98,0.00,,,0.22,Wunderground v.1.15,2013-06-19 09:43:00,
2013-06-19 05:49:00,56.1,55.5,29.68,East,86,0.0,0.0,98,0.00,,,0.22,Wunderground v.1.15,2013-06-19 09:49:00,
2013-06-19 05:54:00,56.0,55.4,29.68,East,86,0.0,0.0,98,0.00,,,0.22,Wunderground v.1.15,2013-06-19 09:54:00,
2013-06-19 06:00:00,55.9,55.3,29.68,East,86,0.0,0.0,98,0.00,,,0.22,Wunderground v.1.15,2013-06-19 10:00:00,
2013-06-19 06:05:00,55.8,55.2,29.68,East,86,0.0,0.0,98,0.00,,,0.23,Wunderground v.1.15,2013-06-19 10:05:00,
2013-06-19 06:11:00,55.7,55.1,29.68,East,86,0.0,0.0,98,0.00,,,0.23,Wunderground v.1.15,2013-06-19 10:11:00,
2013-06-19 06:16:00,55.7,55.1,29.68,East,86,0.0,0.0,98,0.00,,,0.23,Wunderground v.1.15,2013-06-19 10:16:00,
2013-06-19 06:22:00,55.6,55.0,29.68,East,86,0.0,0.0,98,0.00,,,0.24,Wunderground v.1.15,2013-06-19 10:22:00,
2013-06-19 06:28:00,55.5,54.9,29.69,East,86,0.0,0.0,98,0.00,,,0.24,Wunderground v.1.15,2013-06-19 10:28:00,
2013-06-19 06:34:00,55.6,55.0,29.69,East,86,0.0,0.0,98,0.00,,,0.24,Wunderground v.1.15,2013-06-19 10:34:00,
2013-06-19 06:40:00,55.5,54.9,29.70,East,86,0.0,0.0,98,0.00,,,0.24,Wunderground v.1.15,2013-06-19 10:40:00,
2013-06-19 06:46:00,55.5,54.9,29.70,East,86,0.0,0.0,98,0.00,,,0.24,Wunderground v.1.15,2013-06-19 10:46:00,
2013-06-19 06:52:00,55.5,54.9,29.70,East,86,0.0,0.0,98,0.00,,,0.25,Wunderground v.1.15,2013-06-19 10:52:00,
2013-06-19 06:57:00,55.5,54.9,29.70,East,86,0.0,0.0,98,0.00,,,0.25,Wunderground v.1.15,2013-06-19 10:57:00,
2013-06-19 07:03:00,55.4,54.8,29.70,East,86,0.0,0.0,98,0.00,,,0.25,Wunderground v.1.15,2013-06-19 11:03:00,
2013-06-19 07:09:00,55.4,54.8,29.71,East,86,0.0,0.0,98,0.00,,,0.25,Wunderground v.1.15,2013-06-19 11:09:00,
2013-06-19 07:15:00,55.4,54.8,29.71,East,86,0.0,0.0,98,0.00,,,0.26,Wunderground v.1.15,2013-06-19 11:15:00,
2013-06-19 07:20:00,55.5,54.9,29.71,East,86,0.0,0.0,98,0.00,,,0.26,Wunderground v.1.15,2013-06-19 11:20:00,
2013-06-19 07:26:00,55.5,54.9,29.71,East,86,0.0,0.0,98,0.00,,,0.26,Wunderground v.1.15,2013-06-19 11:26:00,
2013-06-19 07:31:00,55.6,55.0,29.71,East,86,0.0,0.0,98,0.00,,,0.26,Wunderground v.1.15,2013-06-19 11:31:00,
2013-06-19 07:37:00,55.6,55.0,29.71,East,86,0.0,0.0,98,0.00,,,0.26,Wunderground v.1.15,2013-06-19 11:37:00,
2013-06-19 07:43:00,55.6,55.0,29.72,East,86,0.0,0.0,98,0.00,,,0.26,Wunderground v.1.15,2013-06-19 11:43:00,
2013-06-19 07:49:00,55.7,55.1,29.72,East,86,0.0,0.0,98,0.00,,,0.27,Wunderground v.1.15,2013-06-19 11:49:00,
2013-06-19 07:54:00,55.9,55.3,29.71,East,86,0.0,0.0,98,0.00,,,0.27,Wunderground v.1.15,2013-06-19 11:54:00,
2013-06-19 08:00:00,56.2,55.6,29.72,East,86,0.0,0.0,98,0.00,,,0.27,Wunderground v.1.15,2013-06-19 12:00:00,
2013-06-19 08:05:00,56.4,55.8,29.72,East,86,0.0,0.0,98,0.00,,,0.27,Wunderground v.1.15,2013-06-19 12:05:00,
2013-06-19 08:11:00,56.4,55.8,29.72,East,86,0.0,0.0,98,0.00,,,0.28,Wunderground v.1.15,2013-06-19 12:11:00,
2013-06-19 08:17:00,56.5,55.9,29.73,East,86,0.0,0.0,98,0.00,,,0.28,Wunderground v.1.15,2013-06-19 12:17:00,
2013-06-19 08:22:00,56.6,56.0,29.73,East,86,0.0,0.0,98,0.00,,,0.28,Wunderground v.1.15,2013-06-19 12:22:00,
2013-06-19 08:28:00,56.7,56.1,29.73,East,86,0.0,0.0,98,0.00,,,0.28,Wunderground v.1.15,2013-06-19 12:28:00,
2013-06-19 08:34:00,56.8,56.2,29.73,East,86,0.0,0.0,98,0.00,,,0.28,Wunderground v.1.15,2013-06-19 12:34:00,
2013-06-19 08:40:00,57.0,56.4,29.74,East,86,0.0,0.0,98,0.00,,,0.28,Wunderground v.1.15,2013-06-19 12:40:00,
2013-06-19 08:45:00,57.0,56.4,29.74,East,86,0.0,0.0,98,0.00,,,0.29,Wunderground v.1.15,2013-06-19 12:45:00,
2013-06-19 08:51:00,57.4,56.8,29.74,East,86,0.0,0.0,98,0.00,,,0.29,Wunderground v.1.15,2013-06-19 12:51:00,
2013-06-19 08:57:00,57.5,56.9,29.74,East,86,0.0,1.0,98,0.00,,,0.29,Wunderground v.1.15,2013-06-19 12:57:00,
2013-06-19 09:03:00,57.6,57.0,29.74,East,86,0.0,2.0,98,0.00,,,0.29,Wunderground v.1.15,2013-06-19 13:03:00,
2013-06-19 09:09:00,57.8,57.2,29.74,East,86,0.0,2.0,98,0.00,,,0.29,Wunderground v.1.15,2013-06-19 13:09:00,
2013-06-19 09:14:00,57.8,57.2,29.75,East,86,0.0,0.0,98,0.00,,,0.30,Wunderground v.1.15,2013-06-19 13:14:00,
2013-06-19 09:20:00,58.1,57.5,29.74,East,86,0.0,0.0,98,0.00,,,0.30,Wunderground v.1.15,2013-06-19 13:20:00,
2013-06-19 09:26:00,58.4,57.8,29.74,East,86,0.0,1.0,98,0.00,,,0.30,Wunderground v.1.15,2013-06-19 13:26:00,
2013-06-19 09:32:00,59.0,58.4,29.75,East,86,0.0,0.0,98,0.00,,,0.30,Wunderground v.1.15,2013-06-19 13:32:00,
2013-06-19 09:37:00,58.9,58.3,29.75,East,86,0.0,1.0,98,0.00,,,0.30,Wunderground v.1.15,2013-06-19 13:37:00,
2013-06-19 09:43:00,58.7,58.1,29.75,East,86,0.0,0.0,98,0.00,,,0.30,Wunderground v.1.15,2013-06-19 13:43:00,
2013-06-19 09:49:00,58.9,58.1,29.75,East,86,0.0,0.0,97,0.00,,,0.31,Wunderground v.1.15,2013-06-19 13:49:00,
2013-06-19 09:55:00,59.0,57.9,29.75,East,86,0.0,2.0,96,0.00,,,0.31,Wunderground v.1.15,2013-06-19 13:55:00,
2013-06-19 10:01:00,59.2,57.2,29.75,East,86,0.0,0.0,93,0.00,,,0.31,Wunderground v.1.15,2013-06-19 14:01:00,
2013-06-19 10:07:00,59.4,57.1,29.75,East,86,0.0,1.0,92,0.00,,,0.31,Wunderground v.1.15,2013-06-19 14:07:00,
2013-06-19 10:13:00,59.9,57.6,29.76,East,86,0.0,0.0,92,0.00,,,0.31,Wunderground v.1.15,2013-06-19 14:13:00,
2013-06-19 10:19:00,60.9,57.6,29.76,East,86,0.0,2.0,89,0.00,,,0.32,Wunderground v.1.15,2013-06-19 14:19:00,
2013-06-19 10:24:00,61.3,56.8,29.76,East,86,0.0,0.0,85,0.00,,,0.32,Wunderground v.1.15,2013-06-19 14:24:00,
2013-06-19 10:30:00,61.4,56.8,29.76,East,86,0.0,0.0,85,0.00,,,0.32,Wunderground v.1.15,2013-06-19 14:30:00,
2013-06-19 10:36:00,61.5,57.6,29.76,East,86,0.0,0.0,87,0.00,,,0.32,Wunderground v.1.15,2013-06-19 14:36:00,
2013-06-19 10:42:00,61.8,56.9,29.76,East,86,0.0,2.0,84,0.00,,,0.32,Wunderground v.1.15,2013-06-19 14:42:00,
2013-06-19 10:48:00,62.0,57.4,29.76,East,86,0.0,2.0,85,0.00,,,0.32,Wunderground v.1.15,2013-06-19 14:48:00,
2013-06-19 10:54:00,62.3,58.1,29.77,East,86,0.0,0.0,86,0.00,,,0.32,Wunderground v.1.15,2013-06-19 14:54:00,
2013-06-19 11:00:00,62.5,57.3,29.76,East,86,0.0,0.0,83,0.00,,,0.32,Wunderground v.1.15,2013-06-19 15:00:00,
2013-06-19 11:05:00,62.8,57.9,29.77,East,86,0.0,2.0,84,0.00,,,0.33,Wunderground v.1.15,2013-06-19 15:05:00,
2013-06-19 11:10:00,63.1,56.5,29.76,East,86,0.0,0.0,79,0.00,,,0.33,Wunderground v.1.15,2013-06-19 15:10:00,
2013-06-19 11:16:00,63.7,56.7,29.76,East,93,0.0,0.0,78,0.00,,,0.33,Wunderground v.1.15,2013-06-19 15:16:00,
2013-06-19 11:21:00,64.0,56.3,29.76,East,93,0.0,0.0,76,0.00,,,0.33,Wunderground v.1.15,2013-06-19 15:21:00,
2013-06-19 11:27:00,64.4,58.1,29.76,SW,220,0.0,1.0,80,0.00,,,0.33,Wunderground v.1.15,2013-06-19 15:27:00,
2013-06-19 11:33:00,64.5,56.0,29.76,SW,220,0.0,1.0,74,0.00,,,0.33,Wunderground v.1.15,2013-06-19 15:33:00,
2013-06-19 11:39:00,64.7,57.0,29.76,SW,220,0.0,1.0,76,0.00,,,0.33,Wunderground v.1.15,2013-06-19 15:39:00,
2013-06-19 11:45:00,65.1,57.3,29.76,SW,220,0.0,0.0,76,0.00,,,0.34,Wunderground v.1.15,2013-06-19 15:45:00,
2013-06-19 11:50:00,65.2,57.1,29.76,SW,220,0.0,0.0,75,0.00,,,0.34,Wunderground v.1.15,2013-06-19 15:50:00,
2013-06-19 11:56:00,65.4,55.4,29.76,ESE,121,0.0,1.0,70,0.00,,,0.34,Wunderground v.1.15,2013-06-19 15:56:00,
2013-06-19 12:02:00,65.8,53.7,29.76,ESE,118,0.0,0.0,65,0.00,,,0.34,Wunderground v.1.15,2013-06-19 16:02:00,
2013-06-19 12:08:00,66.4,54.7,29.76,SW,225,0.0,1.0,66,0.00,,,0.34,Wunderground v.1.15,2013-06-19 16:08:00,
2013-06-19 12:14:00,66.7,55.0,29.76,WSW,240,0.0,2.0,66,0.00,,,0.34,Wunderground v.1.15,2013-06-19 16:14:00,
2013-06-19 12:20:00,67.3,57.2,29.76,WSW,254,0.0,0.0,70,0.00,,,0.34,Wunderground v.1.15,2013-06-19 16:20:00,
2013-06-19 12:25:00,67.4,56.5,29.76,ESE,105,0.0,1.0,68,0.00,,,0.34,Wunderground v.1.15,2013-06-19 16:25:00,
2013-06-19 12:31:00,67.9,56.1,29.76,SSE,163,0.0,0.0,66,0.00,,,0.35,Wunderground v.1.15,2013-06-19 16:31:00,
2013-06-19 12:37:00,68.6,55.9,29.76,ESE,107,0.0,2.0,64,0.00,,,0.35,Wunderground v.1.15,2013-06-19 16:37:00,
2013-06-19 12:42:00,69.1,56.8,29.76,ESE,107,0.0,0.0,65,0.00,,,0.35,Wunderground v.1.15,2013-06-19 16:42:00,
2013-06-19 12:48:00,69.6,55.6,29.76,ESE,107,0.0,0.0,61,0.00,,,0.35,Wunderground v.1.15,2013-06-19 16:48:00,
2013-06-19 12:54:00,70.4,58.1,29.76,WSW,250,0.0,0.0,65,0.00,,,0.35,Wunderground v.1.15,2013-06-19 16:54:00,
2013-06-19 13:00:00,71.4,55.4,29.76,WSW,256,0.0,0.0,57,0.00,,,0.35,Wunderground v.1.15,2013-06-19 17:00:00,
2013-06-19 13:05:00,71.2,56.1,29.76,WSW,256,0.0,2.0,59,0.00,,,0.35,Wunderground v.1.15,2013-06-19 17:05:00,
2013-06-19 13:11:00,70.7,56.6,29.76,WSW,256,0.0,0.0,61,0.00,,,0.35,Wunderground v.1.15,2013-06-19 17:11:00,
2013-06-19 13:16:00,70.8,59.3,29.76,WSW,256,0.0,0.0,67,0.00,,,0.35,Wunderground v.1.15,2013-06-19 17:16:00,
2013-06-19 13:22:00,71.5,55.9,29.76,SSW,211,0.0,0.0,58,0.00,,,0.35,Wunderground v.1.15,2013-06-19 17:22:00,
2013-06-19 13:28:00,72.4,58.2,29.76,WSW,239,0.0,0.0,61,0.00,,,0.35,Wunderground v.1.15,2013-06-19 17:28:00,
2013-06-19 13:34:00,72.0,56.4,29.76,WSW,239,0.0,0.0,58,0.00,,,0.35,Wunderground v.1.15,2013-06-19 17:34:00,
2013-06-19 13:40:00,71.0,58.6,29.76,SE,146,0.0,1.0,65,0.00,,,0.35,Wunderground v.1.15,2013-06-19 17:40:00,
2013-06-19 13:46:00,71.5,60.0,29.76,SE,146,0.0,1.0,67,0.00,,,0.35,Wunderground v.1.15,2013-06-19 17:46:00,
2013-06-19 13:51:00,72.3,55.7,29.76,SE,137,0.0,0.0,56,0.00,,,0.35,Wunderground v.1.15,2013-06-19 17:51:00,
2013-06-19 13:56:00,72.6,57.4,29.76,ESE,117,0.0,2.0,59,0.00,,,0.35,Wunderground v.1.15,2013-06-19 17:56:00,
2013-06-19 14:02:00,72.2,55.1,29.76,ESE,117,0.0,0.0,55,0.00,,,0.35,Wunderground v.1.15,2013-06-19 18:02:00,
2013-06-19 14:08:00,72.4,53.2,29.76,WSW,253,0.0,2.0,51,0.00,,,0.35,Wunderground v.1.15,2013-06-19 18:08:00,
2013-06-19 14:14:00,73.0,59.2,29.76,ESE,116,0.0,0.0,62,0.00,,,0.35,Wunderground v.1.15,2013-06-19 18:14:00,
2013-06-19 14:19:00,73.1,55.5,29.76,ESE,116,0.0,0.0,54,0.00,,,0.35,Wunderground v.1.15,2013-06-19 18:19:00,
2013-06-19 14:25:00,73.6,55.9,29.76,ESE,116,0.0,0.0,54,0.00,,,0.35,Wunderground v.1.15,2013-06-19 18:25:00,
2013-06-19 14:31:00,74.5,58.3,29.76,ESE,116,0.0,0.0,57,0.00,,,0.35,Wunderground v.1.15,2013-06-19 18:31:00,
2013-06-19 14:37:00,74.3,57.1,29.76,ESE,113,0.0,1.0,55,0.00,,,0.35,Wunderground v.1.15,2013-06-19 18:37:00,
2013-06-19 14:42:00,73.3,56.7,29.76,ESE,113,0.0,0.0,56,0.00,,,0.35,Wunderground v.1.15,2013-06-19 18:42:00,
2013-06-19 14:48:00,73.4,59.6,29.77,ESE,113,0.0,0.0,62,0.00,,,0.35,Wunderground v.1.15,2013-06-19 18:48:00,
2013-06-19 14:54:00,74.2,54.9,29.77,SW,219,0.0,1.0,51,0.00,,,0.35,Wunderground v.1.15,2013-06-19 18:54:00,
2013-06-19 15:00:00,75.4,56.5,29.77,SSE,157,0.0,0.0,52,0.00,,,0.35,Wunderground v.1.15,2013-06-19 19:00:00,
2013-06-19 15:05:00,76.1,59.3,29.77,SSE,167,0.0,1.0,56,0.00,,,0.35,Wunderground v.1.15,2013-06-19 19:05:00,
2013-06-19 15:11:00,76.9,57.9,29.77,South,169,0.0,0.0,52,0.00,,,0.35,Wunderground v.1.15,2013-06-19 19:11:00,
2013-06-19 15:17:00,77.1,61.2,29.76,SE,136,0.0,0.0,58,0.00,,,0.35,Wunderground v.1.15,2013-06-19 19:17:00,
2013-06-19 15:22:00,76.6,59.2,29.77,SE,136,0.0,1.0,55,0.00,,,0.35,Wunderground v.1.15,2013-06-19 19:22:00,
2013-06-19 15:28:00,75.5,59.2,29.77,SE,128,0.0,1.0,57,0.00,,,0.35,Wunderground v.1.15,2013-06-19 19:28:00,
2013-06-19 15:34:00,75.7,59.9,29.77,SE,128,0.0,0.0,58,0.00,,,0.35,Wunderground v.1.15,2013-06-19 19:34:00,
2013-06-19 15:40:00,76.5,63.0,29.77,SE,129,0.0,0.0,63,0.00,,,0.35,Wunderground v.1.15,2013-06-19 19:40:00,
2013-06-19 15:46:00,77.4,56.2,29.77,SSW,203,0.0,0.0,48,0.00,,,0.35,Wunderground v.1.15,2013-06-19 19:46:00,
2013-06-19 15:52:00,78.3,62.3,29.77,SSW,203,0.0,0.0,58,0.00,,,0.35,Wunderground v.1.15,2013-06-19 19:52:00,
2013-06-19 15:58:00,77.8,61.8,29.77,SSW,211,0.0,0.0,58,0.00,,,0.35,Wunderground v.1.15,2013-06-19 19:58:00,
2013-06-19 16:03:00,77.2,56.6,29.77,SSW,207,0.0,0.0,49,0.00,,,0.35,Wunderground v.1.15,2013-06-19 20:03:00,
2013-06-19 16:09:00,77.5,55.1,29.77,SSE,167,0.0,0.0,46,0.00,,,0.35,Wunderground v.1.15,2013-06-19 20:09:00,
2013-06-19 16:15:00,77.5,57.9,29.77,South,190,0.0,0.0,51,0.00,,,0.35,Wunderground v.1.15,2013-06-19 20:15:00,
2013-06-19 16:20:00,77.3,61.9,29.77,South,190,0.0,0.0,59,0.00,,,0.35,Wunderground v.1.15,2013-06-19 20:20:00,
2013-06-19 16:26:00,77.1,55.3,29.77,South,176,0.0,1.0,47,0.00,,,0.35,Wunderground v.1.15,2013-06-19 20:26:00,
2013-06-19 16:32:00,76.8,61.9,29.77,South,176,0.0,0.0,60,0.00,,,0.35,Wunderground v.1.15,2013-06-19 20:32:00,
2013-06-19 16:38:00,75.4,59.1,29.77,South,176,0.0,1.0,57,0.00,,,0.35,Wunderground v.1.15,2013-06-19 20:38:00,
2013-06-19 16:43:00,74.9,60.1,29.77,South,176,0.0,0.0,60,0.00,,,0.35,Wunderground v.1.15,2013-06-19 20:43:00,
2013-06-19 16:49:00,74.1,57.9,29.77,SSE,156,0.0,0.0,57,0.00,,,0.35,Wunderground v.1.15,2013-06-19 20:49:00,
2013-06-19 16:55:00,73.6,60.7,29.77,SSE,156,0.0,0.0,64,0.00,,,0.35,Wunderground v.1.15,2013-06-19 20:55:00,
2013-06-19 17:01:00,73.6,59.3,29.77,SSE,156,0.0,0.0,61,0.00,,,0.35,Wunderground v.1.15,2013-06-19 21:01:00,
2013-06-19 17:07:00,73.5,59.7,29.77,SSE,156,0.0,0.0,62,0.00,,,0.35,Wunderground v.1.15,2013-06-19 21:07:00,
2013-06-19 17:13:00,73.0,56.4,29.77,SSE,156,0.0,0.0,56,0.00,,,0.35,Wunderground v.1.15,2013-06-19 21:13:00,
2013-06-19 17:19:00,72.7,59.8,29.77,SSE,156,0.0,0.0,64,0.00,,,0.35,Wunderground v.1.15,2013-06-19 21:19:00,
2013-06-19 17:24:00,72.3,58.1,29.77,SSE,156,0.0,0.0,61,0.00,,,0.35,Wunderground v.1.15,2013-06-19 21:24:00,
2013-06-19 17:30:00,71.8,60.7,29.77,SSE,156,0.0,0.0,68,0.00,,,0.35,Wunderground v.1.15,2013-06-19 21:30:00,
2013-06-19 17:36:00,71.1,57.4,29.77,SSE,162,0.0,0.0,62,0.00,,,0.35,Wunderground v.1.15,2013-06-19 21:36:00,
2013-06-19 17:42:00,70.2,57.4,29.77,SSE,162,0.0,0.0,64,0.00,,,0.35,Wunderground v.1.15,2013-06-19 21:42:00,
2013-06-19 17:48:00,69.4,57.5,29.77,SSE,162,0.0,0.0,66,0.00,,,0.35,Wunderground v.1.15,2013-06-19 21:48:00,
2013-06-19 17:53:00,69.3,56.2,29.77,SSE,162,0.0,0.0,63,0.00,,,0.35,Wunderground v.1.15,2013-06-19 21:53:00,
2013-06-19 17:59:00,68.9,57.9,29.78,SSE,162,0.0,0.0,68,0.00,,,0.35,Wunderground v.1.15,2013-06-19 21:59:00,
2013-06-19 18:05:00,68.6,58.4,29.78,SSE,162,0.0,0.0,70,0.00,,,0.35,Wunderground v.1.15,2013-06-19 22:05:00,
2013-06-19 18:11:00,68.7,57.7,29.78,SSE,162,0.0,0.0,68,0.00,,,0.35,Wunderground v.1.15,2013-06-19 22:11:00,
2013-06-19 18:16:00,69.4,57.1,29.78,SSW,205,0.0,0.0,65,0.00,,,0.35,Wunderground v.1.15,2013-06-19 22:16:00,
2013-06-19 18:22:00,69.6,58.6,29.79,SSW,210,0.0,0.0,68,0.00,,,0.35,Wunderground v.1.15,2013-06-19 22:22:00,
2013-06-19 18:28:00,69.0,57.6,29.79,South,184,0.0,1.0,67,0.00,,,0.35,Wunderground v.1.15,2013-06-19 22:28:00,
2013-06-19 18:34:00,68.3,53.4,29.79,South,186,0.0,0.0,59,0.00,,,0.35,Wunderground v.1.15,2013-06-19 22:34:00,
2013-06-19 18:40:00,67.9,56.9,29.79,South,187,0.0,0.0,68,0.00,,,0.35,Wunderground v.1.15,2013-06-19 22:40:00,
2013-06-19 18:46:00,67.1,57.8,29.80,South,187,0.0,0.0,72,0.00,,,0.35,Wunderground v.1.15,2013-06-19 22:46:00,
2013-06-19 18:52:00,66.4,57.5,29.80,South,187,0.0,0.0,73,0.00,,,0.35,Wunderground v.1.15,2013-06-19 22:52:00,
2013-06-19 18:58:00,65.9,56.2,29.80,South,187,0.0,0.0,71,0.00,,,0.35,Wunderground v.1.15,2013-06-19 22:58:00,
2013-06-19 19:04:00,65.6,55.9,29.80,South,187,0.0,0.0,71,0.00,,,0.35,Wunderground v.1.15,2013-06-19 23:04:00,
2013-06-19 19:10:00,65.4,54.2,29.80,South,187,0.0,0.0,67,0.00,,,0.35,Wunderground v.1.15,2013-06-19 23:10:00,
2013-06-19 19:16:00,65.3,54.9,29.80,South,187,0.0,0.0,69,0.00,,,0.35,Wunderground v.1.15,2013-06-19 23:16:00,
2013-06-19 19:22:00,65.2,53.6,29.80,South,187,0.0,0.0,66,0.00,,,0.35,Wunderground v.1.15,2013-06-19 23:22:00,
2013-06-19 19:28:00,64.9,52.4,29.80,South,187,0.0,0.0,64,0.00,,,0.35,Wunderground v.1.15,2013-06-19 23:28:00,
2013-06-19 19:33:00,64.7,55.1,29.80,South,187,0.0,0.0,71,0.00,,,0.35,Wunderground v.1.15,2013-06-19 23:33:00,
2013-06-19 19:39:00,64.4,55.2,29.81,South,187,0.0,0.0,72,0.00,,,0.35,Wunderground v.1.15,2013-06-19 23:39:00,
2013-06-19 19:45:00,64.1,56.4,29.81,South,187,0.0,0.0,76,0.00,,,0.35,Wunderground v.1.15,2013-06-19 23:45:00,
2013-06-19 19:51:00,63.7,55.3,29.81,South,187,0.0,0.0,74,0.00,,,0.35,Wunderground v.1.15,2013-06-19 23:51:00,
2013-06-19 19:57:00,63.4,55.3,29.82,South,186,0.0,0.0,75,0.00,,,0.35,Wunderground v.1.15,2013-06-19 23:57:00,
2013-06-19 20:03:00,63.1,56.1,29.82,South,187,0.0,0.0,78,0.00,,,0.35,Wunderground v.1.15,2013-06-20 00:03:00,
2013-06-19 20:08:00,62.8,54.0,29.82,South,187,0.0,0.0,73,0.00,,,0.35,Wunderground v.1.15,2013-06-20 00:08:00,
2013-06-19 20:14:00,62.8,55.8,29.82,South,186,0.0,0.0,78,0.00,,,0.35,Wunderground v.1.15,2013-06-20 00:14:00,
2013-06-19 20:20:00,62.6,55.3,29.82,South,187,0.0,0.0,77,0.00,,,0.35,Wunderground v.1.15,2013-06-20 00:20:00,
2013-06-19 20:26:00,62.2,54.9,29.82,South,187,0.0,0.0,77,0.00,,,0.35,Wunderground v.1.15,2013-06-20 00:26:00,
2013-06-19 20:32:00,61.7,54.8,29.82,South,186,0.0,0.0,78,0.00,,,0.35,Wunderground v.1.15,2013-06-20 00:32:00,
2013-06-19 20:38:00,61.3,54.4,29.83,South,187,0.0,0.0,78,0.00,,,0.35,Wunderground v.1.15,2013-06-20 00:38:00,
2013-06-19 20:44:00,61.0,54.1,29.83,South,187,0.0,0.0,78,0.00,,,0.35,Wunderground v.1.15,2013-06-20 00:44:00,
2013-06-19 20:49:00,60.9,54.0,29.83,South,187,0.0,0.0,78,0.00,,,0.35,Wunderground v.1.15,2013-06-20 00:49:00,
2013-06-19 20:55:00,60.6,54.0,29.83,South,187,0.0,0.0,79,0.00,,,0.35,Wunderground v.1.15,2013-06-20 00:55:00,
2013-06-19 21:01:00,60.3,54.1,29.84,South,187,0.0,0.0,80,0.00,,,0.35,Wunderground v.1.15,2013-06-20 01:01:00,
2013-06-19 21:07:00,59.8,53.6,29.84,South,187,0.0,0.0,80,0.00,,,0.35,Wunderground v.1.15,2013-06-20 01:07:00,
2013-06-19 21:13:00,59.1,52.6,29.84,South,187,0.0,0.0,79,0.00,,,0.35,Wunderground v.1.15,2013-06-20 01:13:00,
2013-06-19 21:19:00,59.0,52.8,29.85,South,187,0.0,0.0,80,0.00,,,0.35,Wunderground v.1.15,2013-06-20 01:19:00,
2013-06-19 21:25:00,58.9,53.1,29.85,South,187,0.0,0.0,81,0.00,,,0.35,Wunderground v.1.15,2013-06-20 01:25:00,
2013-06-19 21:30:00,58.5,53.0,29.85,South,187,0.0,0.0,82,0.00,,,0.35,Wunderground v.1.15,2013-06-20 01:30:00,
2013-06-19 21:36:00,58.3,52.5,29.86,South,187,0.0,0.0,81,0.00,,,0.35,Wunderground v.1.15,2013-06-20 01:36:00,
2013-06-19 21:42:00,58.1,52.3,29.86,South,187,0.0,0.0,81,0.00,,,0.35,Wunderground v.1.15,2013-06-20 01:42:00,
2013-06-19 21:48:00,57.9,51.8,29.86,South,186,0.0,0.0,80,0.00,,,0.35,Wunderground v.1.15,2013-06-20 01:48:00,
2013-06-19 21:54:00,57.6,51.5,29.86,South,187,0.0,0.0,80,0.00,,,0.35,Wunderground v.1.15,2013-06-20 01:54:00,
2013-06-19 22:00:00,57.5,51.4,29.86,South,187,0.0,0.0,80,0.00,,,0.35,Wunderground v.1.15,2013-06-20 02:00:00,
2013-06-19 22:05:00,57.2,51.4,29.87,South,187,0.0,0.0,81,0.00,,,0.35,Wunderground v.1.15,2013-06-20 02:05:00,
2013-06-19 22:10:00,57.1,51.7,29.87,South,187,0.0,0.0,82,0.00,,,0.35,Wunderground v.1.15,2013-06-20 02:10:00,
2013-06-19 22:16:00,57.0,51.9,29.87,South,187,0.0,0.0,83,0.00,,,0.35,Wunderground v.1.15,2013-06-20 02:16:00,
2013-06-19 22:22:00,56.8,51.7,29.87,South,187,0.0,0.0,83,0.00,,,0.35,Wunderground v.1.15,2013-06-20 02:22:00,
2013-06-19 22:28:00,56.6,51.2,29.88,South,187,0.0,0.0,82,0.00,,,0.35,Wunderground v.1.15,2013-06-20 02:28:00,
2013-06-19 22:34:00,56.2,50.8,29.88,South,187,0.0,0.0,82,0.00,,,0.35,Wunderground v.1.15,2013-06-20 02:34:00,
2013-06-19 22:39:00,55.9,51.1,29.88,South,186,0.0,0.0,84,0.00,,,0.35,Wunderground v.1.15,2013-06-20 02:39:00,
2013-06-19 22:45:00,55.7,50.6,29.88,South,187,0.0,0.0,83,0.00,,,0.35,Wunderground v.1.15,2013-06-20 02:45:00,
2013-06-19 22:51:00,55.5,50.7,29.88,South,187,0.0,0.0,84,0.00,,,0.35,Wunderground v.1.15,2013-06-20 02:51:00,
2013-06-19 22:57:00,55.4,50.6,29.88,South,186,0.0,0.0,84,0.00,,,0.35,Wunderground v.1.15,2013-06-20 02:57:00,
2013-06-19 23:02:00,55.3,51.5,29.89,South,187,0.0,0.0,87,0.00,,,0.35,Wunderground v.1.15,2013-06-20 03:02:00,
2013-06-19 23:08:00,55.0,51.5,29.89,South,187,0.0,0.0,88,0.00,,,0.35,Wunderground v.1.15,2013-06-20 03:08:00,
2013-06-19 23:14:00,54.6,50.8,29.89,South,187,0.0,0.0,87,0.00,,,0.35,Wunderground v.1.15,2013-06-20 03:14:00,
2013-06-19 23:20:00,54.4,50.3,29.89,South,187,0.0,0.0,86,0.00,,,0.35,Wunderground v.1.15,2013-06-20 03:20:00,
2013-06-19 23:26:00,54.3,50.5,29.89,South,187,0.0,0.0,87,0.00,,,0.35,Wunderground v.1.15,2013-06-20 03:26:00,
2013-06-19 23:32:00,54.3,50.2,29.89,South,186,0.0,0.0,86,0.00,,,0.35,Wunderground v.1.15,2013-06-20 03:32:00,
2013-06-19 23:38:00,54.3,51.1,29.89,South,187,0.0,0.0,89,0.00,,,0.35,Wunderground v.1.15,2013-06-20 03:38:00,
2013-06-19 23:43:00,54.4,51.2,29.89,South,187,0.0,0.0,89,0.00,,,0.35,Wunderground v.1.15,2013-06-20 03:43:00,
2013-06-19 23:49:00,54.0,50.8,29.89,South,187,0.0,0.0,89,0.00,,,0.35,Wunderground v.1.15,2013-06-20 03:49:00,
2013-06-19 23:55:00,53.5,50.3,29.90,South,187,0.0,0.0,89,0.00,,,0.35,Wunderground v.1.15,2013-06-20 03:55:00,